createdAt,value
2022-09-02T00:02:13.922Z,100470.63
2022-09-02T00:04:40.974Z,100475.84
2022-09-02T00:07:07.949Z,100475.66
2022-09-02T00:09:35.232Z,100478.94
2022-09-02T00:12:02.362Z,100478.47
2022-09-02T00:14:34.802Z,100479.06
2022-09-02T00:17:02.543Z,100474.44
2022-09-02T00:19:30.663Z,100477.75
2022-09-02T00:21:58.708Z,100470.72
2022-09-02T00:24:26.465Z,100478.69
2022-09-02T00:26:56.900Z,100478.06
2022-09-02T00:29:25.865Z,100472.38
2022-09-02T00:31:53.868Z,100475.81
2022-09-02T00:34:21.252Z,100475.69
2022-09-02T00:36:48.218Z,100481.72
2022-09-02T00:39:15.392Z,100469.34
2022-09-02T00:41:43.484Z,100468.56
2022-09-02T00:44:14.268Z,100475.97
2022-09-02T00:46:41.635Z,100466.38
2022-09-02T00:49:28.984Z,100469.31
2022-09-02T00:52:02.119Z,100464.56
2022-09-02T00:54:32.970Z,100464.75
2022-09-02T00:57:04.043Z,100469.09
2022-09-02T00:59:46.826Z,100465.81
2022-09-02T01:02:14.360Z,100477.75
2022-09-02T01:04:43.281Z,100470.00
2022-09-02T01:07:10.364Z,100472.00
2022-09-02T01:09:38.083Z,100478.16
2022-09-02T01:12:05.640Z,100471.50
2022-09-02T01:14:32.760Z,100477.72
2022-09-02T01:17:01.674Z,100472.50
2022-09-02T01:19:37.272Z,100470.13
2022-09-02T01:22:15.408Z,100479.97
2022-09-02T01:24:42.495Z,100468.50
2022-09-02T01:27:09.685Z,100470.69
2022-09-02T01:29:36.622Z,100470.38
2022-09-02T01:32:03.797Z,100468.09
2022-09-02T01:34:32.002Z,100467.91
2022-09-02T01:36:58.919Z,100461.00
2022-09-02T01:39:26.433Z,100463.63
2022-09-02T01:41:53.403Z,100460.16
2022-09-02T01:44:20.728Z,100451.00
2022-09-02T01:46:49.966Z,100452.69
2022-09-02T01:49:16.994Z,100454.78
2022-09-02T01:51:45.048Z,100442.72
2022-09-02T01:54:12.261Z,100449.88
2022-09-02T01:56:39.412Z,100437.25
2022-09-02T01:59:07.987Z,100439.84
2022-09-02T02:01:35.838Z,100446.50
2022-09-02T02:04:04.904Z,100441.94
2022-09-02T02:06:32.683Z,100434.81
2022-09-02T02:09:00.023Z,100441.41
2022-09-02T02:11:27.825Z,100438.28
2022-09-02T02:13:59.220Z,100435.44
2022-09-02T02:16:26.448Z,100433.34
2022-09-02T02:18:53.560Z,100441.28
2022-09-02T02:21:20.750Z,100441.28
2022-09-02T02:23:47.858Z,100435.28
2022-09-02T02:26:14.869Z,100433.41
2022-09-02T02:28:41.896Z,100424.53
2022-09-02T02:31:09.570Z,100433.78
2022-09-02T02:33:38.513Z,100439.78
2022-09-02T02:36:08.135Z,100430.88
2022-09-02T02:38:36.592Z,100438.09
2022-09-02T02:41:06.559Z,100433.84
2022-09-02T02:43:37.224Z,100432.59
2022-09-02T02:46:05.762Z,100430.06
2022-09-02T02:48:34.489Z,100425.69
2022-09-02T02:51:01.686Z,100429.56
2022-09-02T02:53:31.364Z,100431.00
2022-09-02T02:55:59.754Z,100431.53
2022-09-02T02:58:27.121Z,100432.28
2022-09-02T03:00:55.417Z,100436.34
2022-09-02T03:03:22.791Z,100440.66
2022-09-02T03:05:54.607Z,100437.38
2022-09-02T03:08:22.676Z,100445.44
2022-09-02T03:10:54.257Z,100443.72
2022-09-02T03:13:24.289Z,100445.66
2022-09-02T03:15:51.674Z,100446.22
2022-09-02T03:18:19.695Z,100441.16
2022-09-02T03:20:48.829Z,100439.38
2022-09-02T03:23:18.146Z,100439.91
2022-09-02T03:25:48.549Z,100442.69
2022-09-02T03:28:24.898Z,100442.41
2022-09-02T03:30:52.328Z,100443.28
2022-09-02T03:33:19.390Z,100442.50
2022-09-02T03:35:47.163Z,100443.72
2022-09-02T03:38:15.452Z,100443.81
2022-09-02T03:40:43.271Z,100444.56
2022-09-02T03:43:10.254Z,100444.84
2022-09-02T03:45:41.725Z,100454.47
2022-09-02T03:48:13.253Z,100445.66
2022-09-02T03:50:43.956Z,100443.22
2022-09-02T03:53:19.539Z,100442.78
2022-09-02T03:55:50.865Z,100444.75
2022-09-02T03:58:19.913Z,100448.81
2022-09-02T04:00:53.769Z,100450.31
2022-09-02T04:03:22.771Z,100464.66
2022-09-02T04:05:52.461Z,100459.72
2022-09-02T04:08:21.078Z,100462.25
2022-09-02T04:10:49.314Z,100463.69
2022-09-02T04:13:16.737Z,100467.91
2022-09-02T04:15:48.225Z,100458.53
2022-09-02T04:18:18.018Z,100465.81
2022-09-02T04:20:45.344Z,100469.13
2022-09-02T04:23:13.112Z,100476.03
2022-09-02T04:25:44.098Z,100470.13
2022-09-02T04:28:13.278Z,100467.78
2022-09-02T04:30:41.882Z,100463.16
2022-09-02T04:33:09.768Z,100469.72
2022-09-02T04:35:41.389Z,100465.56
2022-09-02T04:38:09.660Z,100472.69
2022-09-02T04:40:41.703Z,100466.00
2022-09-02T04:43:08.800Z,100467.00
2022-09-02T04:45:39.569Z,100464.81
2022-09-02T04:48:07.189Z,100463.31
2022-09-02T04:50:36.548Z,100466.16
2022-09-02T04:53:05.530Z,100461.91
2022-09-02T04:55:32.711Z,100474.56
2022-09-02T04:58:01.036Z,100470.63
2022-09-02T05:00:28.358Z,100473.00
2022-09-02T05:02:56.062Z,100461.03
2022-09-02T05:05:26.126Z,100467.19
2022-09-02T05:07:56.664Z,100471.78
2022-09-02T05:10:24.118Z,100474.19
2022-09-02T05:12:52.444Z,100483.25
2022-09-02T05:15:19.505Z,100472.09
2022-09-02T05:17:47.904Z,100484.59
2022-09-02T05:20:15.696Z,100479.75
2022-09-02T05:22:46.312Z,100473.75
2022-09-02T05:25:15.302Z,100473.97
2022-09-02T05:27:42.275Z,100473.91
2022-09-02T05:30:09.536Z,100479.88
2022-09-02T05:32:37.893Z,100474.13
2022-09-02T05:35:06.585Z,100477.28
2022-09-02T05:37:35.719Z,100474.13
2022-09-02T05:40:05.724Z,100472.84
2022-09-02T05:42:35.715Z,100476.34
2022-09-02T05:45:03.464Z,100472.72
2022-09-02T05:47:30.443Z,100470.34
2022-09-02T05:49:57.341Z,100480.03
2022-09-02T05:52:25.722Z,100476.44
2022-09-02T05:54:55.235Z,100471.72
2022-09-02T05:57:23.727Z,100480.44
2022-09-02T06:00:13.634Z,100486.84
2022-09-02T06:02:52.552Z,100483.94
2022-09-02T06:05:33.944Z,100490.84
2022-09-02T06:08:13.044Z,100482.19
2022-09-02T06:10:43.320Z,100483.16
2022-09-02T06:13:12.888Z,100486.97
2022-09-02T06:15:46.525Z,100487.19
2022-09-02T06:18:15.409Z,100491.47
2022-09-02T06:20:46.555Z,100489.16
2022-09-02T06:23:15.310Z,100493.16
2022-09-02T06:25:45.543Z,100496.50
2022-09-02T06:28:14.246Z,100494.34
2022-09-02T06:30:46.155Z,100498.78
2022-09-02T06:33:13.283Z,100496.84
2022-09-02T06:35:45.235Z,100497.59
2022-09-02T06:38:15.184Z,100495.16
2022-09-02T06:40:49.027Z,100495.38
2022-09-02T06:43:18.342Z,100501.81
2022-09-02T06:46:24.337Z,100503.88
2022-09-02T06:48:54.443Z,100502.19
2022-09-02T06:51:38.922Z,100505.84
2022-09-02T06:54:08.696Z,100502.66
2022-09-02T06:56:38.799Z,100510.75
2022-09-02T06:59:07.921Z,100509.31
2022-09-02T07:01:42.866Z,100504.97
2022-09-02T07:04:29.832Z,100509.84
2022-09-02T07:06:57.758Z,100505.03
2022-09-02T07:09:31.675Z,100498.88
2022-09-02T07:12:05.920Z,100503.38
2022-09-02T07:14:40.264Z,100506.66
2022-09-02T07:17:10.615Z,100504.44
2022-09-02T07:19:38.184Z,100500.34
2022-09-02T07:22:06.915Z,100497.94
2022-09-02T07:24:39.062Z,100499.00
2022-09-02T07:27:07.674Z,100508.19
2022-09-02T07:29:35.377Z,100502.59
2022-09-02T07:32:02.681Z,100499.91
2022-09-02T07:34:30.463Z,100494.31
2022-09-02T07:37:03.234Z,100493.56
2022-09-02T07:39:30.517Z,100492.78
2022-09-02T07:41:58.173Z,100496.31
2022-09-02T07:44:27.897Z,100507.75
2022-09-02T07:46:55.802Z,100503.97
2022-09-02T07:49:24.440Z,100514.19
2022-09-02T07:51:52.926Z,100507.88
2022-09-02T07:54:25.210Z,100503.78
2022-09-02T07:56:53.964Z,100513.44
2022-09-02T07:59:21.876Z,100502.81
2022-09-02T08:01:53.147Z,100500.59
2022-09-02T08:04:24.729Z,100498.78
2022-09-02T08:06:53.593Z,100487.28
2022-09-02T08:09:21.719Z,100490.78
2022-09-02T08:11:50.899Z,100496.31
2022-09-02T08:14:26.103Z,100496.44
2022-09-02T08:16:54.658Z,100509.50
2022-09-02T08:19:22.576Z,100492.25
2022-09-02T08:21:50.754Z,100500.50
2022-09-02T08:24:17.695Z,100491.22
2022-09-02T08:26:44.624Z,100496.44
2022-09-02T08:29:11.826Z,100485.16
2022-09-02T08:31:39.231Z,100482.47
2022-09-02T08:34:06.641Z,100492.09
2022-09-02T08:36:34.341Z,100493.78
2022-09-02T08:39:06.094Z,100508.19
2022-09-02T08:41:45.187Z,100507.47
2022-09-02T08:44:21.240Z,100505.13
2022-09-02T08:46:50.800Z,100496.50
2022-09-02T08:49:35.687Z,100494.28
2022-09-02T08:52:03.729Z,100491.81
2022-09-02T08:54:41.909Z,100498.22
2022-09-02T08:57:10.530Z,100497.50
2022-09-02T08:59:38.489Z,100494.97
2022-09-02T09:02:26.946Z,100497.44
2022-09-02T09:05:11.447Z,100489.88
2022-09-02T09:08:02.553Z,100501.72
2022-09-02T09:10:35.835Z,100498.59
2022-09-02T09:13:11.759Z,100488.69
2022-09-02T09:15:53.021Z,100506.06
2022-09-02T09:18:30.817Z,100494.78
2022-09-02T09:20:57.765Z,100485.56
2022-09-02T09:23:34.811Z,100489.44
2022-09-02T09:26:28.078Z,100473.94
2022-09-02T09:28:56.680Z,100492.09
2022-09-02T09:31:29.946Z,100484.25
2022-09-02T09:34:10.020Z,100473.84
2022-09-02T09:36:39.822Z,100486.03
2022-09-02T09:39:19.900Z,100479.47
2022-09-02T09:41:48.459Z,100480.06
2022-09-02T09:44:38.608Z,100471.28
2022-09-02T09:47:08.804Z,100484.13
2022-09-02T09:49:36.789Z,100485.91
2022-09-02T09:52:04.737Z,100478.19
2022-09-02T09:54:32.217Z,100477.88
2022-09-02T09:57:21.417Z,100468.59
2022-09-02T09:59:56.159Z,100464.06
2022-09-02T10:02:24.714Z,100454.44
2022-09-02T10:05:17.280Z,100446.66
2022-09-02T10:07:54.795Z,100435.25
2022-09-02T10:10:24.417Z,100434.44
2022-09-02T10:12:53.922Z,100434.41
2022-09-02T10:15:29.420Z,100431.06
2022-09-02T10:18:07.775Z,100436.78
2022-09-02T10:21:18.062Z,100420.81
2022-09-02T10:24:04.506Z,100401.09
2022-09-02T10:26:49.260Z,100410.72
2022-09-02T10:29:28.084Z,100411.53
2022-09-02T10:32:10.379Z,100402.66
2022-09-02T10:35:21.504Z,100402.88
2022-09-02T10:38:09.712Z,100400.31
2022-09-02T10:40:45.760Z,100409.59
2022-09-02T10:43:33.094Z,100395.47
2022-09-02T10:46:01.449Z,100399.19
2022-09-02T10:48:46.921Z,100397.91
2022-09-02T10:51:33.519Z,100408.56
2022-09-02T10:54:12.527Z,100403.09
2022-09-02T10:56:50.799Z,100402.78
2022-09-02T10:59:27.249Z,100399.09
2022-09-02T11:02:07.483Z,100417.59
2022-09-02T11:04:34.349Z,100419.88
2022-09-02T11:07:05.995Z,100410.56
2022-09-02T11:09:46.253Z,100406.22
2022-09-02T11:12:15.980Z,100406.03
2022-09-02T11:15:04.547Z,100406.00
2022-09-02T11:17:47.535Z,100418.53
2022-09-02T11:20:35.741Z,100422.28
2022-09-02T11:23:27.226Z,100421.22
2022-09-02T11:26:00.168Z,100423.00
2022-09-02T11:28:49.014Z,100408.03
2022-09-02T11:31:46.585Z,100396.22
2022-09-02T11:34:25.744Z,100395.00
2022-09-02T11:36:53.138Z,100381.28
2022-09-02T11:39:53.989Z,100396.81
2022-09-02T11:42:41.469Z,100372.56
2022-09-02T11:45:44.077Z,100375.31
2022-09-02T11:48:24.565Z,100383.34
2022-09-02T11:51:03.404Z,100371.34
2022-09-02T11:53:35.947Z,100384.56
2022-09-02T11:56:15.921Z,100375.19
2022-09-02T11:58:48.349Z,100384.78
2022-09-02T12:01:15.243Z,100386.53
2022-09-02T12:04:27.635Z,100384.00
2022-09-02T12:06:58.569Z,100388.25
2022-09-02T12:09:48.801Z,100375.72
2022-09-02T12:12:37.524Z,100392.63
2022-09-02T12:15:08.323Z,100390.72
2022-09-02T12:17:51.965Z,100360.78
2022-09-02T12:20:41.627Z,100347.88
2022-09-02T12:23:30.943Z,100358.91
2022-09-02T12:26:06.981Z,100347.34
2022-09-02T12:28:34.207Z,100346.34
2022-09-02T12:31:08.950Z,100352.75
2022-09-02T12:33:44.995Z,100365.59
2022-09-02T12:36:45.450Z,100366.88
2022-09-02T12:39:35.811Z,100381.53
2022-09-02T12:42:07.736Z,100363.16
2022-09-02T12:45:00.195Z,100379.91
2022-09-02T12:47:53.115Z,100368.31
2022-09-02T12:50:23.966Z,100363.53
2022-09-02T12:52:54.488Z,100360.63
2022-09-02T12:55:24.103Z,100358.19
2022-09-02T12:57:55.262Z,100337.50
2022-09-02T13:00:38.084Z,100345.56
2022-09-02T13:03:23.569Z,100351.94
2022-09-02T13:06:07.733Z,100353.66
2022-09-02T13:08:50.178Z,100345.94
2022-09-02T13:11:37.208Z,100333.47
2022-09-02T13:14:25.990Z,100340.88
2022-09-02T13:16:55.678Z,100340.19
2022-09-02T13:19:48.750Z,100334.22
2022-09-02T13:22:35.250Z,100321.34
2022-09-02T13:25:41.772Z,100329.75
2022-09-02T13:28:14.402Z,100320.75
2022-09-02T13:31:03.090Z,100327.25
2022-09-02T13:33:30.164Z,100321.41
2022-09-02T13:36:01.434Z,100312.63
2022-09-02T13:38:30.227Z,100310.41
2022-09-02T13:40:57.448Z,100305.53
2022-09-02T13:43:27.142Z,100310.84
2022-09-02T13:46:01.735Z,100320.84
2022-09-02T13:48:33.578Z,100319.59
2022-09-02T13:51:12.179Z,100304.69
2022-09-02T13:53:45.521Z,100310.91
2022-09-02T13:56:25.719Z,100309.41
2022-09-02T13:58:57.001Z,100317.22
2022-09-02T14:01:29.642Z,100312.34
2022-09-02T14:03:59.256Z,100317.56
2022-09-02T14:06:30.847Z,100309.69
2022-09-02T14:09:01.480Z,100309.66
2022-09-02T14:11:32.443Z,100301.28
2022-09-02T14:13:59.613Z,100301.03
2022-09-02T14:16:33.271Z,100286.44
2022-09-02T14:19:22.123Z,100299.59
2022-09-02T14:21:57.765Z,100287.44
2022-09-02T14:24:30.111Z,100266.56
2022-09-02T14:26:59.177Z,100291.72
2022-09-02T14:29:30.248Z,100291.38
2022-09-02T14:32:15.818Z,100285.50
2022-09-02T14:34:45.014Z,100296.34
2022-09-02T14:37:24.062Z,100281.25
2022-09-02T14:40:12.220Z,100300.28
2022-09-02T14:42:57.243Z,100312.97
2022-09-02T14:45:33.185Z,100308.41
2022-09-02T14:48:22.116Z,100314.56
2022-09-02T14:50:50.662Z,100317.09
2022-09-02T14:53:22.983Z,100328.69
2022-09-02T14:55:55.492Z,100345.16
2022-09-02T14:58:27.066Z,100342.63
2022-09-02T15:01:00.434Z,100352.38
2022-09-02T15:03:29.589Z,100336.78
2022-09-02T15:05:56.950Z,100339.31
2022-09-02T15:08:24.077Z,100342.91
2022-09-02T15:10:54.327Z,100344.53
2022-09-02T15:13:38.822Z,100347.16
2022-09-02T15:16:05.944Z,100341.09
2022-09-02T15:18:32.936Z,100354.19
2022-09-02T15:21:00.116Z,100345.84
2022-09-02T15:23:31.617Z,100344.19
2022-09-02T15:26:02.032Z,100340.94
2022-09-02T15:28:30.109Z,100337.25
2022-09-02T15:31:01.327Z,100311.03
2022-09-02T15:33:29.201Z,100312.44
2022-09-02T15:36:04.742Z,100311.03
2022-09-02T15:38:31.750Z,100306.50
2022-09-02T15:41:22.977Z,100306.72
2022-09-02T15:43:53.447Z,100316.84
2022-09-02T15:46:26.560Z,100318.53
2022-09-02T15:48:57.887Z,100332.78
2022-09-02T15:51:27.765Z,100338.66
2022-09-02T15:53:59.456Z,100336.19
2022-09-02T15:56:28.273Z,100344.53
2022-09-02T15:59:00.800Z,100340.22
2022-09-02T16:01:29.819Z,100341.59
2022-09-02T16:03:58.068Z,100353.91
2022-09-02T16:06:25.936Z,100354.75
2022-09-02T16:08:52.920Z,100363.59
2022-09-02T16:11:21.237Z,100365.97
2022-09-02T16:13:48.897Z,100375.00
2022-09-02T16:16:16.076Z,100374.16
2022-09-02T16:18:44.218Z,100382.91
2022-09-02T16:21:12.718Z,100388.81
2022-09-02T16:23:39.992Z,100382.34
2022-09-02T16:26:15.730Z,100381.06
2022-09-02T16:28:44.995Z,100378.88
2022-09-02T16:31:17.527Z,100370.72
2022-09-02T16:34:09.146Z,100386.97
2022-09-02T16:36:38.952Z,100399.50
2022-09-02T16:39:07.190Z,100386.63
2022-09-02T16:41:36.772Z,100370.47
2022-09-02T16:44:12.696Z,100368.75
2022-09-02T16:46:42.395Z,100352.50
2022-09-02T16:49:15.511Z,100353.38
2022-09-02T16:51:42.505Z,100351.41
2022-09-02T16:54:17.332Z,100349.91
2022-09-02T16:56:50.692Z,100348.94
2022-09-02T16:59:19.308Z,100349.78
2022-09-02T17:01:46.639Z,100354.88
2022-09-02T17:04:13.626Z,100369.31
2022-09-02T17:06:42.336Z,100383.19
2022-09-02T17:09:10.034Z,100394.81
2022-09-02T17:11:39.888Z,100400.38
2022-09-02T17:14:16.284Z,100389.88
2022-09-02T17:16:46.275Z,100388.16
2022-09-02T17:19:21.601Z,100393.09
2022-09-02T17:21:51.125Z,100415.69
2022-09-02T17:24:20.110Z,100414.78
2022-09-02T17:26:50.816Z,100426.75
2022-09-02T17:29:47.546Z,100439.25
2022-09-02T17:32:07.900Z,100441.25
2022-09-02T17:34:34.875Z,100439.50
2022-09-02T17:37:01.860Z,100438.75
2022-09-02T17:39:28.922Z,100446.94
2022-09-02T17:41:57.757Z,100449.69
2022-09-02T17:44:26.127Z,100452.00
2022-09-02T17:46:54.031Z,100447.09
2022-09-02T17:49:21.259Z,100439.34
2022-09-02T17:51:49.715Z,100455.25
2022-09-02T17:54:16.696Z,100449.13
2022-09-02T17:57:29.339Z,100446.31
2022-09-02T18:00:18.727Z,100446.31
2022-09-02T18:03:22.292Z,100453.03
2022-09-02T18:06:16.583Z,100467.06
2022-09-02T18:08:46.318Z,100465.97
2022-09-02T18:11:13.464Z,100478.41
2022-09-02T18:14:14.592Z,100477.69
2022-09-02T18:16:59.374Z,100479.19
2022-09-02T18:19:36.669Z,100479.63
2022-09-02T18:22:21.488Z,100473.66
2022-09-02T18:24:51.542Z,100475.59
2022-09-02T18:27:27.616Z,100478.13
2022-09-02T18:29:57.377Z,100474.91
2022-09-02T18:32:45.772Z,100458.53
2022-09-02T18:35:24.035Z,100444.81
2022-09-02T18:37:59.575Z,100433.94
2022-09-02T18:40:47.624Z,100432.00
2022-09-02T18:43:35.022Z,100417.72
2022-09-02T18:46:03.492Z,100409.41
2022-09-02T18:48:36.196Z,100404.31
2022-09-02T18:51:25.219Z,100412.94
2022-09-02T18:53:57.894Z,100412.47
2022-09-02T18:56:31.395Z,100407.84
2022-09-02T18:59:08.119Z,100407.78
2022-09-02T19:01:43.896Z,100406.66
2022-09-02T19:04:11.574Z,100418.09
2022-09-02T19:06:40.445Z,100415.75
2022-09-02T19:09:12.485Z,100421.84
2022-09-02T19:11:40.080Z,100424.53
2022-09-02T19:14:26.529Z,100430.41
2022-09-02T19:16:55.181Z,100439.94
2022-09-02T19:19:22.175Z,100444.88
2022-09-02T19:21:50.152Z,100446.72
2022-09-02T19:24:26.998Z,100443.22
2022-09-02T19:27:09.086Z,100438.41
2022-09-02T19:29:40.422Z,100439.88
2022-09-02T19:32:08.390Z,100438.25
2022-09-02T19:34:39.225Z,100440.28
2022-09-02T19:37:06.904Z,100440.94
2022-09-02T19:39:35.242Z,100443.94
2022-09-02T19:42:02.197Z,100440.47
2022-09-02T19:44:29.705Z,100443.47
2022-09-02T19:47:49.707Z,100440.59
2022-09-02T19:49:44.361Z,100425.97
2022-09-02T19:52:11.507Z,100416.91
2022-09-02T19:54:38.965Z,100411.25
2022-09-02T19:57:06.021Z,100403.41
2022-09-02T19:59:33.673Z,100411.75
2022-09-02T20:02:00.903Z,100404.97
2022-09-02T20:04:29.898Z,100402.34
2022-09-02T20:06:58.993Z,100408.84
2022-09-02T20:09:29.372Z,100412.25
2022-09-02T20:11:56.752Z,100410.19
2022-09-02T20:14:23.836Z,100409.50
2022-09-02T20:17:00.637Z,100392.41
2022-09-02T20:19:28.087Z,100398.81
2022-09-02T20:21:55.144Z,100405.31
2022-09-02T20:24:31.602Z,100402.78
2022-09-02T20:27:21.959Z,100424.72
2022-09-02T20:30:00.970Z,100421.13
2022-09-02T20:32:39.836Z,100419.34
2022-09-02T20:35:28.303Z,100420.44
2022-09-02T20:38:07.457Z,100414.06
2022-09-02T20:40:46.450Z,100417.25
2022-09-02T20:43:44.476Z,100418.94
2022-09-02T20:46:29.518Z,100410.38
2022-09-02T20:49:20.462Z,100405.53
2022-09-02T20:52:11.172Z,100394.41
2022-09-02T20:54:41.051Z,100396.72
2022-09-02T20:57:10.931Z,100396.72
2022-09-02T20:59:38.553Z,100401.00
2022-09-02T21:02:09.735Z,100398.16
2022-09-02T21:04:44.816Z,100412.81
2022-09-02T21:07:17.924Z,100410.78
2022-09-02T21:10:09.369Z,100415.97
2022-09-02T21:12:55.233Z,100417.97
2022-09-02T21:15:48.263Z,100418.56
2022-09-02T21:18:40.628Z,100410.72
2022-09-02T21:21:41.667Z,100405.28
2022-09-02T21:24:18.160Z,100393.53
2022-09-02T21:26:56.783Z,100385.22
2022-09-02T21:29:28.233Z,100385.00
2022-09-02T21:32:13.298Z,100380.16
2022-09-02T21:34:50.894Z,100375.19
2022-09-02T21:37:20.203Z,100355.31
2022-09-02T21:39:55.616Z,100355.72
2022-09-02T21:42:25.293Z,100343.16
2022-09-02T21:45:06.065Z,100339.94
2022-09-02T21:47:43.734Z,100330.91
2022-09-02T21:50:22.040Z,100321.66
2022-09-02T21:52:52.812Z,100319.41
2022-09-02T21:55:42.539Z,100319.78
2022-09-02T21:58:20.623Z,100321.94
2022-09-02T22:01:08.560Z,100327.59
2022-09-02T22:03:47.027Z,100329.22
2022-09-02T22:06:41.037Z,100326.53
2022-09-02T22:09:27.784Z,100329.44
2022-09-02T22:12:05.913Z,100333.25
2022-09-02T22:14:44.321Z,100326.56
2022-09-02T22:17:33.795Z,100332.22
2022-09-02T22:20:02.995Z,100333.63
2022-09-02T22:22:34.966Z,100343.47
2022-09-02T22:25:01.981Z,100339.47
2022-09-02T22:27:37.334Z,100345.06
2022-09-02T22:30:14.478Z,100348.50
2022-09-02T22:32:47.571Z,100336.06
2022-09-02T22:35:25.289Z,100346.25
2022-09-02T22:37:59.144Z,100349.06
2022-09-02T22:40:32.491Z,100347.63
2022-09-02T22:43:06.209Z,100355.97
2022-09-02T22:46:04.179Z,100357.06
2022-09-02T22:48:56.805Z,100354.56
2022-09-02T22:52:01.682Z,100357.78
2022-09-02T22:54:32.224Z,100351.97
2022-09-02T22:57:15.846Z,100347.44
2022-09-02T23:00:08.237Z,100338.41
2022-09-02T23:03:14.337Z,100335.38
2022-09-02T23:06:03.296Z,100322.13
2022-09-02T23:08:30.842Z,100313.88
2022-09-02T23:11:09.565Z,100320.03
2022-09-02T23:13:45.441Z,100330.03
2022-09-02T23:16:23.708Z,100329.25
2022-09-02T23:19:17.650Z,100330.31
2022-09-02T23:22:12.278Z,100321.56
2022-09-02T23:24:45.217Z,100328.47
2022-09-02T23:27:51.825Z,100320.09
2022-09-02T23:30:18.794Z,100311.69
2022-09-02T23:33:13.099Z,100305.53
2022-09-02T23:36:11.810Z,100299.06
2022-09-02T23:38:53.951Z,100297.88
2022-09-02T23:41:20.900Z,100289.47
2022-09-02T23:43:49.686Z,100284.00
2022-09-02T23:46:24.086Z,100276.25
2022-09-02T23:49:06.008Z,100276.78
2022-09-02T23:51:56.222Z,100263.22
2022-09-02T23:54:38.010Z,100271.44
2022-09-02T23:57:29.863Z,100266.22
